Irene_c — WD12546 — position and weather

sailwx.info

Track history (hours):
 
Tides and Currents Weather Stations Pressure Air Temp Water Temp Dewpoint Dewpoint Depression Visibility Wind Speed Wind Dir Waves Ship Positions

Irene_c

Last reported at 2018-Jul-22 10:45 UTC. Time now 2018-Jul-22 12:51 UTC.
Position N 29°44' W 095°12'.

Length 8 m; draft 3 m.

MMSI: 367679290.

Date/timePositionNaut miles runAvg speedWind from/ knotsBaromVisibWave heightAir tempDewpointWater temp
2018-Jul-22 10:45N 29°44' W 095°12'0 0.0
2018-Jul-22 10:18N 29°44' W 095°12'0 0.3
2018-Jul-22 09:59N 29°44' W 095°12'0 0.0
2018-Jul-22 09:29N 29°44' W 095°12'0 0.0
2018-Jul-22 08:56N 29°44' W 095°12'0 0.0
2018-Jul-22 08:29N 29°44' W 095°12'0 0.0
2018-Jul-22 07:59N 29°44' W 095°12'0 0.0
2018-Jul-22 07:29N 29°44' W 095°12'0 0.0
2018-Jul-22 06:59N 29°44' W 095°12'0 0.0
2018-Jul-22 06:29N 29°44' W 095°12'0 0.0
2018-Jul-22 05:56N 29°44' W 095°12'0 0.0
2018-Jul-22 05:29N 29°44' W 095°12'0 0.0
2018-Jul-22 04:56N 29°44' W 095°12'0 0.0
2018-Jul-22 03:47N 29°44' W 095°12'0 0.0
2018-Jul-21 07:53N 29°44' W 095°12'0 0.0
2018-Jul-21 01:42N 29°44' W 095°12'0 0.0
2018-Jul-21 01:30N 29°44' W 095°12'1 0.2
2018-Jul-20 18:34N 29°45' W 095°11'1 4.9
2018-Jul-20 18:26N 29°45' W 095°10'2 4.8
2018-Jul-20 17:58N 29°44' W 095°08'2 4.9
2018-Jul-20 17:30N 29°45' W 095°06'2 4.0
2018-Jul-20 16:58N 29°47' W 095°04'1 1.0
2018-Jul-20 15:39N 29°47' W 095°06'0 0.1
2018-Jul-20 15:09N 29°47' W 095°06'0 0.1
2018-Jul-20 14:39N 29°47' W 095°06'0 0.0
2018-Jul-20 11:19N 29°47' W 095°06'0 0.0
2018-Jul-20 10:49N 29°47' W 095°06'0 0.0
2018-Jul-20 10:25N 29°47' W 095°06'0 0.0
2018-Jul-20 09:58N 29°47' W 095°06'0 0.0
2018-Jul-20 09:25N 29°47' W 095°06'0 0.0
2018-Jul-20 08:52N 29°47' W 095°06'0 0.0
2018-Jul-20 08:28N 29°47' W 095°06'0 0.0
2018-Jul-20 07:49N 29°47' W 095°06'0 0.0
2018-Jul-20 07:28N 29°47' W 095°06'0 0.0
2018-Jul-20 06:49N 29°47' W 095°06'0 0.0
2018-Jul-20 06:25N 29°47' W 095°06'0 0.0
2018-Jul-20 05:55N 29°47' W 095°06'0 0.0
2018-Jul-20 05:19N 29°47' W 095°06'0 0.0
2018-Jul-20 04:58N 29°47' W 095°06'0 0.0
2018-Jul-20 04:28N 29°47' W 095°06'0 0.0
2018-Jul-19 11:19N 29°47' W 095°06'0 0.1
2018-Jul-19 10:58N 29°47' W 095°06'0 0.2
2018-Jul-19 10:25N 29°47' W 095°06'0 0.0
2018-Jul-19 09:58N 29°47' W 095°06'0 0.0
2018-Jul-19 08:04N 29°47' W 095°06'0 0.0
2018-Jul-19 07:58N 29°47' W 095°06'1 2.7
2018-Jul-19 07:30N 29°46' W 095°05'3 5.9
2018-Jul-19 07:00N 29°44' W 095°08'3 5.9
2018-Jul-19 06:30N 29°45' W 095°11'0 0.6
2018-Jul-19 05:55N 29°45' W 095°12'0 0.0
2018-Jul-19 04:34N 29°45' W 095°12'0 0.0
2018-Jul-19 04:31N 29°45' W 095°12'0 0.5
2018-Jul-19 03:59N 29°45' W 095°11'3 6.0
2018-Jul-19 03:30N 29°44' W 095°08'3 6.1
2018-Jul-19 03:00N 29°46' W 095°05'1 0.4
2018-Jul-18 23:10N 29°47' W 095°04'1 2.9
2018-Jul-18 23:00N 29°47' W 095°05'2 4.0
2018-Jul-18 22:23N 29°45' W 095°06'4 0.7
2018-Jul-18 16:17N 29°45' W 095°11'2 6.2
2018-Jul-18 16:00N 29°44' W 095°09'3 6.1
2018-Jul-18 15:29N 29°45' W 095°06'2 0.3
2018-Jul-18 08:43N 29°47' W 095°06'1 0.2
2018-Jul-17 23:51N 29°46' W 095°05'2 4.9
2018-Jul-17 23:25N 29°45' W 095°06'6 0.4
2018-Jul-17 08:32N 29°44' W 095°13'0 0.0
2018-Jul-17 08:20N 29°44' W 095°13'0 0.0
2018-Jul-17 07:56N 29°44' W 095°13'0 0.0
2018-Jul-17 07:26N 29°44' W 095°13'0 0.0
2018-Jul-17 06:56N 29°44' W 095°13'0 0.0
2018-Jul-17 06:26N 29°44' W 095°13'0 0.0
2018-Jul-17 05:56N 29°44' W 095°13'0 0.0
2018-Jul-17 05:26N 29°44' W 095°13'0 0.0
2018-Jul-17 04:59N 29°44' W 095°13'2 0.4
2018-Jul-17 00:04N 29°45' W 095°11'3 0.2
2018-Jul-16 13:00N 29°44' W 095°08'1 0.2
2018-Jul-16 09:43N 29°44' W 095°08'3 2.9
2018-Jul-16 08:42N 29°45' W 095°12'2 0.1
2018-Jul-15 18:44N 29°45' W 095°10'3 5.6
2018-Jul-15 18:16N 29°44' W 095°07'  
2018-Jul-12 16:57N 29°47' W 095°04'2 0.5
2018-Jul-12 12:23N 29°45' W 095°06'0 0.0
2018-Jul-12 11:17N 29°45' W 095°06'  
Track history (hours):
 
Tides and Currents Weather Stations Pressure Air Temp Water Temp Dewpoint Dewpoint Depression Visibility Wind Speed Wind Dir Waves Ship Positions

Irene_c

Last reported at 2018-Jul-22 10:45 UTC. Time now 2018-Jul-22 12:51 UTC.
Position N 29°44' W 095°12'.

Length 8 m; draft 3 m.

MMSI: 367679290.

Date/timePositionNaut miles runAvg speedWind from/ knotsBaromVisibWave heightAir tempDewpointWater temp
2018-Jul-22 10:45N 29°44' W 095°12'0 0.0
2018-Jul-22 10:18N 29°44' W 095°12'0 0.3
2018-Jul-22 09:59N 29°44' W 095°12'0 0.0
2018-Jul-22 09:29N 29°44' W 095°12'0 0.0
2018-Jul-22 08:56N 29°44' W 095°12'0 0.0
2018-Jul-22 08:29N 29°44' W 095°12'0 0.0
2018-Jul-22 07:59N 29°44' W 095°12'0 0.0
2018-Jul-22 07:29N 29°44' W 095°12'0 0.0
2018-Jul-22 06:59N 29°44' W 095°12'0 0.0
2018-Jul-22 06:29N 29°44' W 095°12'0 0.0
2018-Jul-22 05:56N 29°44' W 095°12'0 0.0
2018-Jul-22 05:29N 29°44' W 095°12'0 0.0
2018-Jul-22 04:56N 29°44' W 095°12'0 0.0
2018-Jul-22 03:47N 29°44' W 095°12'0 0.0
2018-Jul-21 07:53N 29°44' W 095°12'0 0.0
2018-Jul-21 01:42N 29°44' W 095°12'0 0.0
2018-Jul-21 01:30N 29°44' W 095°12'1 0.2
2018-Jul-20 18:34N 29°45' W 095°11'1 4.9
2018-Jul-20 18:26N 29°45' W 095°10'2 4.8
2018-Jul-20 17:58N 29°44' W 095°08'2 4.9
2018-Jul-20 17:30N 29°45' W 095°06'2 4.0
2018-Jul-20 16:58N 29°47' W 095°04'1 1.0
2018-Jul-20 15:39N 29°47' W 095°06'0 0.1
2018-Jul-20 15:09N 29°47' W 095°06'0 0.1
2018-Jul-20 14:39N 29°47' W 095°06'0 0.0
2018-Jul-20 11:19N 29°47' W 095°06'0 0.0
2018-Jul-20 10:49N 29°47' W 095°06'0 0.0
2018-Jul-20 10:25N 29°47' W 095°06'0 0.0
2018-Jul-20 09:58N 29°47' W 095°06'0 0.0
2018-Jul-20 09:25N 29°47' W 095°06'0 0.0
2018-Jul-20 08:52N 29°47' W 095°06'0 0.0
2018-Jul-20 08:28N 29°47' W 095°06'0 0.0
2018-Jul-20 07:49N 29°47' W 095°06'0 0.0
2018-Jul-20 07:28N 29°47' W 095°06'0 0.0
2018-Jul-20 06:49N 29°47' W 095°06'0 0.0
2018-Jul-20 06:25N 29°47' W 095°06'0 0.0
2018-Jul-20 05:55N 29°47' W 095°06'0 0.0
2018-Jul-20 05:19N 29°47' W 095°06'0 0.0
2018-Jul-20 04:58N 29°47' W 095°06'0 0.0
2018-Jul-20 04:28N 29°47' W 095°06'0 0.0
2018-Jul-19 11:19N 29°47' W 095°06'0 0.1
2018-Jul-19 10:58N 29°47' W 095°06'0 0.2
2018-Jul-19 10:25N 29°47' W 095°06'0 0.0
2018-Jul-19 09:58N 29°47' W 095°06'0 0.0
2018-Jul-19 08:04N 29°47' W 095°06'0 0.0
2018-Jul-19 07:58N 29°47' W 095°06'1 2.7
2018-Jul-19 07:30N 29°46' W 095°05'3 5.9
2018-Jul-19 07:00N 29°44' W 095°08'3 5.9
2018-Jul-19 06:30N 29°45' W 095°11'0 0.6
2018-Jul-19 05:55N 29°45' W 095°12'0 0.0
2018-Jul-19 04:34N 29°45' W 095°12'0 0.0
2018-Jul-19 04:31N 29°45' W 095°12'0 0.5
2018-Jul-19 03:59N 29°45' W 095°11'3 6.0
2018-Jul-19 03:30N 29°44' W 095°08'3 6.1
2018-Jul-19 03:00N 29°46' W 095°05'1 0.4
2018-Jul-18 23:10N 29°47' W 095°04'1 2.9
2018-Jul-18 23:00N 29°47' W 095°05'2 4.0
2018-Jul-18 22:23N 29°45' W 095°06'4 0.7
2018-Jul-18 16:17N 29°45' W 095°11'2 6.2
2018-Jul-18 16:00N 29°44' W 095°09'3 6.1
2018-Jul-18 15:29N 29°45' W 095°06'2 0.3
2018-Jul-18 08:43N 29°47' W 095°06'1 0.2
2018-Jul-17 23:51N 29°46' W 095°05'2 4.9
2018-Jul-17 23:25N 29°45' W 095°06'6 0.4
2018-Jul-17 08:32N 29°44' W 095°13'0 0.0
2018-Jul-17 08:20N 29°44' W 095°13'0 0.0
2018-Jul-17 07:56N 29°44' W 095°13'0 0.0
2018-Jul-17 07:26N 29°44' W 095°13'0 0.0
2018-Jul-17 06:56N 29°44' W 095°13'0 0.0
2018-Jul-17 06:26N 29°44' W 095°13'0 0.0
2018-Jul-17 05:56N 29°44' W 095°13'0 0.0
2018-Jul-17 05:26N 29°44' W 095°13'0 0.0
2018-Jul-17 04:59N 29°44' W 095°13'2 0.4
2018-Jul-17 00:04N 29°45' W 095°11'3 0.2
2018-Jul-16 13:00N 29°44' W 095°08'1 0.2
2018-Jul-16 09:43N 29°44' W 095°08'3 2.9
2018-Jul-16 08:42N 29°45' W 095°12'2 0.1
2018-Jul-15 18:44N 29°45' W 095°10'3 5.6
2018-Jul-15 18:16N 29°44' W 095°07'  
2018-Jul-12 16:57N 29°47' W 095°04'2 0.5
2018-Jul-12 12:23N 29°45' W 095°06'0 0.0
2018-Jul-12 11:17N 29°45' W 095°06'  

Dump ship's entire track history